Time;durP1;ratioP1;P1;durP2;ratioP2;P2;SDS_P1;SDS_P2;PMS_P1;PMS_P2;Temp;Humidity;BMP_temperature;BMP_pressure;BME280_temperature;BME280_humidity;BME280_pressure;Samples;Min_cycle;Max_cycle;Signal;HPM_P1;HPM_P2
2021/10/05 00:00:45;;;;;;;4.55;4.22;;;14.10;99.90;;;;;;4957137;29;20039;-92
2021/10/05 00:03:13;;;;;;;6.57;5.40;;;14.10;99.90;;;;;;4955361;29;20080;-82
2021/10/05 00:05:40;;;;;;;3.92;3.63;;;14.10;99.90;;;;;;4937849;29;20035;-86
2021/10/05 00:08:07;;;;;;;4.78;4.38;;;14.00;99.90;;;;;;4937195;29;20062;-83
2021/10/05 00:10:35;;;;;;;4.47;4.07;;;14.00;99.90;;;;;;4937553;29;20058;-85
2021/10/05 00:13:02;;;;;;;3.05;2.85;;;13.80;99.90;;;;;;4954612;29;20059;-84
2021/10/05 00:15:30;;;;;;;2.60;2.40;;;13.80;99.90;;;;;;4936638;29;20430;-84
2021/10/05 00:17:57;;;;;;;3.72;3.42;;;13.80;99.90;;;;;;4937470;29;20054;-83
2021/10/05 00:20:25;;;;;;;3.25;3.00;;;13.70;99.90;;;;;;4936915;29;20178;-84
2021/10/05 00:22:52;;;;;;;3.53;3.22;;;13.70;99.90;;;;;;4938342;29;20460;-85
2021/10/05 00:25:20;;;;;;;3.75;3.45;;;13.80;99.90;;;;;;4937218;29;20047;-86
2021/10/05 00:27:47;;;;;;;5.85;4.97;;;13.80;99.90;;;;;;4954445;29;20369;-86
2021/10/05 00:30:14;;;;;;;4.00;3.70;;;13.80;99.90;;;;;;4937008;29;20448;-83
2021/10/05 00:32:42;;;;;;;3.22;2.92;;;13.80;99.90;;;;;;4936885;29;20053;-85
2021/10/05 00:35:09;;;;;;;4.18;3.78;;;13.70;99.90;;;;;;4953554;29;20443;-86
2021/10/05 00:37:37;;;;;;;5.07;3.95;;;13.60;99.90;;;;;;4953984;29;20088;-81
2021/10/05 00:40:06;;;;;;;2.97;2.78;;;13.50;99.90;;;;;;4936780;29;20051;-87
2021/10/05 00:42:33;;;;;;;2.60;2.40;;;13.60;99.90;;;;;;4936615;29;20058;-86
2021/10/05 00:45:03;;;;;;;2.90;2.60;;;13.70;99.90;;;;;;4937271;29;20043;-86
2021/10/05 00:47:30;;;;;;;4.78;3.97;;;13.50;99.90;;;;;;4955923;28;20525;-83
2021/10/05 00:49:57;;;;;;;2.70;2.50;;;13.30;99.90;;;;;;4957820;29;20050;-84
2021/10/05 00:52:25;;;;;;;3.55;3.25;;;13.30;99.90;;;;;;4940927;29;20043;-80
2021/10/05 00:54:52;;;;;;;2.95;2.75;;;13.30;99.90;;;;;;4926185;29;20055;-84
2021/10/05 00:57:19;;;;;;;3.55;3.25;;;13.40;99.90;;;;;;4957518;29;20689;-84
2021/10/05 00:59:47;;;;;;;2.67;2.47;;;13.30;99.90;;;;;;4939988;29;20055;-82
2021/10/05 01:02:14;;;;;;;2.70;2.50;;;13.20;99.90;;;;;;4924402;29;20077;-84
2021/10/05 01:04:43;;;;;;;2.60;2.40;;;13.20;99.90;;;;;;4940223;29;20440;-82
2021/10/05 01:07:14;;;;;;;4.03;3.72;;;13.20;99.90;;;;;;4940386;29;20473;-81
2021/10/05 01:09:43;;;;;;;3.25;3.05;;;13.10;99.90;;;;;;4939530;29;20445;-82
2021/10/05 01:12:11;;;;;;;3.28;3.05;;;13.00;99.90;;;;;;4957340;29;20143;-85
2021/10/05 01:14:40;;;;;;;3.15;2.83;;;13.10;99.90;;;;;;4957084;29;20863;-81
2021/10/05 01:17:08;;;;;;;2.88;2.67;;;13.10;99.90;;;;;;4939806;29;20117;-83
2021/10/05 01:19:36;;;;;;;3.38;3.08;;;13.20;99.90;;;;;;4961299;28;20371;-87
2021/10/05 01:22:04;;;;;;;2.97;2.78;;;13.30;99.90;;;;;;4959953;28;20043;-84
2021/10/05 01:24:32;;;;;;;2.80;2.60;;;13.20;99.90;;;;;;4958912;28;20046;-85
2021/10/05 01:27:01;;;;;;;3.17;2.95;;;13.10;99.90;;;;;;4959515;28;20398;-85
2021/10/05 01:29:31;;;;;;;2.63;2.42;;;13.10;99.90;;;;;;4959478;28;20046;-82
2021/10/05 01:32:02;;;;;;;4.00;3.70;;;13.00;99.90;;;;;;4977546;28;20394;-90
2021/10/05 01:34:30;;;;;;;4.72;3.15;;;13.00;99.90;;;;;;4977523;28;20039;-88
2021/10/05 01:36:59;;;;;;;2.75;2.55;;;12.90;99.90;;;;;;4960121;28;20038;-86
2021/10/05 01:39:29;;;;;;;3.03;2.83;;;13.10;99.90;;;;;;4959109;28;20062;-86
2021/10/05 01:42:06;;;;;;;2.80;2.60;;;13.00;99.90;;;;;;4976730;28;20482;-83
2021/10/05 01:44:35;;;;;;;2.83;2.63;;;12.90;99.90;;;;;;4958988;28;20059;-82
2021/10/05 01:47:04;;;;;;;3.05;2.85;;;12.90;99.90;;;;;;4976175;28;20039;-85
2021/10/05 01:49:31;;;;;;;3.00;2.80;;;13.00;99.90;;;;;;4977560;28;20039;-87
2021/10/05 01:51:59;;;;;;;4.28;3.97;;;13.00;99.90;;;;;;4959695;28;20042;-87
2021/10/05 01:54:26;;;;;;;3.05;2.85;;;12.80;99.90;;;;;;4977342;28;20043;-85
2021/10/05 01:56:53;;;;;;;3.88;3.58;;;12.90;99.90;;;;;;4975806;28;20054;-82
2021/10/05 01:59:20;;;;;;;2.83;2.63;;;13.00;99.90;;;;;;4958338;28;20042;-84
2021/10/05 02:01:48;;;;;;;4.13;3.47;;;13.00;99.90;;;;;;4958776;28;20047;-84
2021/10/05 02:04:15;;;;;;;2.90;2.70;;;12.90;99.90;;;;;;4958870;28;20138;-82
2021/10/05 02:06:44;;;;;;;3.20;3.00;;;12.90;99.90;;;;;;4975417;28;20058;-83
2021/10/05 02:09:12;;;;;;;2.88;2.67;;;12.80;99.90;;;;;;4958693;28;20400;-84
2021/10/05 02:11:40;;;;;;;3.33;3.08;;;12.80;99.90;;;;;;4975416;28;20054;-83
2021/10/05 02:14:08;;;;;;;3.50;3.20;;;12.80;99.90;;;;;;4974046;28;20042;-80
2021/10/05 02:16:35;;;;;;;2.95;2.75;;;12.80;99.90;;;;;;4975503;28;20046;-83
2021/10/05 02:19:04;;;;;;;2.80;2.60;;;12.90;99.90;;;;;;4975113;28;20415;-80
2021/10/05 02:21:32;;;;;;;3.60;3.30;;;12.80;99.90;;;;;;4975228;28;20045;-83
2021/10/05 02:26:46;;;;;;;2.70;2.50;;;12.80;99.90;;;;;;4958595;28;20035;-85
2021/10/05 02:29:14;;;;;;;3.10;2.90;;;12.70;99.90;;;;;;4945272;29;20079;-85
2021/10/05 02:31:41;;;;;;;3.55;3.25;;;12.80;99.90;;;;;;4920490;29;20051;-83
2021/10/05 02:34:09;;;;;;;2.97;2.78;;;12.70;99.90;;;;;;4937073;29;20043;-87
2021/10/05 02:36:36;;;;;;;3.33;3.05;;;12.20;99.90;;;;;;4920004;29;20048;-82
2021/10/05 02:39:05;;;;;;;2.70;2.50;;;12.40;99.90;;;;;;4937402;29;20051;-82
2021/10/05 02:41:33;;;;;;;3.28;3.08;;;12.30;99.90;;;;;;4937196;29;20456;-86
2021/10/05 02:44:00;;;;;;;3.28;2.92;;;12.50;99.90;;;;;;4937737;29;20048;-87
2021/10/05 02:46:27;;;;;;;3.22;3.03;;;12.60;99.90;;;;;;4904947;29;20126;-88
2021/10/05 02:48:55;;;;;;;4.97;4.57;;;12.70;99.90;;;;;;4937957;29;20047;-87
2021/10/05 02:51:22;;;;;;;3.88;3.58;;;12.70;99.90;;;;;;4921294;29;20464;-89
2021/10/05 02:53:49;;;;;;;5.30;4.28;;;12.50;99.90;;;;;;4937060;29;20044;-85
2021/10/05 02:56:18;;;;;;;2.92;2.72;;;12.40;99.90;;;;;;4937094;29;20084;-86
2021/10/05 02:58:45;;;;;;;3.50;3.20;;;12.50;99.90;;;;;;4937121;29;20044;-81
2021/10/05 03:01:12;;;;;;;2.80;2.60;;;12.50;99.90;;;;;;4919789;29;20146;-86
2021/10/05 03:03:40;;;;;;;3.28;2.97;;;12.60;99.90;;;;;;4937456;29;20373;-86
2021/10/05 03:06:08;;;;;;;2.80;2.60;;;12.60;99.90;;;;;;4937590;29;20048;-84
2021/10/05 03:08:36;;;;;;;7.70;4.57;;;12.50;99.90;;;;;;4905491;29;20612;-88
2021/10/05 03:11:04;;;;;;;3.17;2.88;;;12.50;99.90;;;;;;4921346;29;20059;-83
2021/10/05 03:13:35;;;;;;;3.60;3.30;;;12.60;99.90;;;;;;4935198;29;20419;-86
2021/10/05 03:16:08;;;;;;;4.28;3.22;;;12.60;99.90;;;;;;4935032;29;20400;-86
2021/10/05 03:18:38;;;;;;;2.80;2.60;;;12.40;99.90;;;;;;4935043;29;20046;-91
2021/10/05 03:21:05;;;;;;;3.05;2.85;;;12.40;99.90;;;;;;4920840;29;20058;-82
2021/10/05 03:23:33;;;;;;;4.60;4.18;;;12.40;99.90;;;;;;4934986;29;20066;-86
2021/10/05 03:29:42;;;;;;;3.20;3.00;;;12.50;99.90;;;;;;4961449;28;20423;-86
2021/10/05 03:32:09;;;;;;;3.28;3.05;;;12.50;99.90;;;;;;4975105;28;20047;-85
2021/10/05 03:34:37;;;;;;;3.15;2.95;;;12.20;99.90;;;;;;4958134;28;20401;-90
2021/10/05 03:37:04;;;;;;;3.03;2.80;;;12.00;99.90;;;;;;4958182;28;20043;-85
2021/10/05 03:39:32;;;;;;;3.05;2.85;;;12.20;99.90;;;;;;4957608;28;20536;-87
2021/10/05 03:41:59;;;;;;;3.42;3.15;;;12.30;99.90;;;;;;4974605;28;20067;-86
2021/10/05 03:44:27;;;;;;;2.95;2.75;;;12.40;99.90;;;;;;4974958;28;20510;-91
2021/10/05 03:46:54;;;;;;;3.65;3.38;;;12.40;99.90;;;;;;4943351;28;20050;-89
2021/10/05 03:49:21;;;;;;;2.90;2.70;;;12.30;99.90;;;;;;4958055;28;20130;-92
2021/10/05 03:51:48;;;;;;;3.55;3.28;;;12.30;99.90;;;;;;4958987;28;20077;-92
2021/10/05 03:57:58;;;;;;;3.20;3.00;;;12.20;99.90;;;;;;4975674;28;20061;-86
2021/10/05 04:00:25;;;;;;;3.67;3.38;;;12.00;99.90;;;;;;4957393;28;20049;-81
2021/10/05 04:02:52;;;;;;;3.58;3.28;;;12.00;99.90;;;;;;4958440;28;20043;-89
2021/10/05 04:05:21;;;;;;;4.40;4.00;;;12.00;99.90;;;;;;4957968;28;20447;-83
2021/10/05 04:07:49;;;;;;;3.70;3.40;;;12.10;99.90;;;;;;4956602;28;20038;-89
2021/10/05 04:10:16;;;;;;;3.20;3.00;;;12.20;99.90;;;;;;4972947;28;20043;-84
2021/10/05 04:12:44;;;;;;;5.60;3.72;;;12.10;99.90;;;;;;4939959;28;20159;-83
2021/10/05 04:15:11;;;;;;;4.50;4.10;;;12.10;99.90;;;;;;4955624;28;20046;-84
2021/10/05 04:17:38;;;;;;;3.08;2.88;;;12.00;99.90;;;;;;4955786;28;20049;-85
2021/10/05 04:20:07;;;;;;;4.60;3.45;;;12.10;99.90;;;;;;4972541;28;20057;-84
2021/10/05 04:22:34;;;;;;;4.03;2.97;;;12.00;99.90;;;;;;4958513;28;20047;-84
2021/10/05 04:25:05;;;;;;;3.38;3.13;;;12.00;99.90;;;;;;4962042;28;20054;-84
2021/10/05 04:27:37;;;;;;;3.15;2.92;;;12.00;99.90;;;;;;4979244;28;20049;-85
2021/10/05 04:30:10;;;;;;;3.35;3.13;;;12.00;99.90;;;;;;4965146;28;20051;-84
2021/10/05 04:32:38;;;;;;;3.03;2.83;;;12.10;99.90;;;;;;4959909;29;20061;-86
2021/10/05 04:35:07;;;;;;;4.07;3.78;;;11.90;99.90;;;;;;4942686;29;20399;-83
2021/10/05 04:37:34;;;;;;;2.80;2.60;;;11.80;99.90;;;;;;4943945;29;20051;-84
2021/10/05 04:40:03;;;;;;;2.90;2.70;;;11.80;99.90;;;;;;4960654;29;20043;-85
2021/10/05 04:42:30;;;;;;;3.25;3.05;;;11.80;99.90;;;;;;4928083;28;20047;-85
2021/10/05 04:44:58;;;;;;;3.45;3.22;;;11.90;99.90;;;;;;4927741;29;20066;-82
2021/10/05 04:47:25;;;;;;;3.00;2.80;;;11.90;99.90;;;;;;4961513;29;20123;-82
2021/10/05 04:49:53;;;;;;;3.60;3.30;;;11.90;99.90;;;;;;4944516;29;20114;-87
2021/10/05 04:52:20;;;;;;;2.75;2.55;;;11.80;99.90;;;;;;4961525;29;20043;-86
2021/10/05 04:54:47;;;;;;;2.83;2.63;;;11.80;99.90;;;;;;4961002;29;20428;-84
2021/10/05 04:57:15;;;;;;;3.00;2.80;;;11.80;99.90;;;;;;4961771;28;20043;-90
2021/10/05 04:59:43;;;;;;;2.80;2.60;;;11.80;99.90;;;;;;4961230;29;20051;-87
2021/10/05 05:02:10;;;;;;;2.90;2.70;;;11.80;99.90;;;;;;4962353;29;20074;-85
2021/10/05 05:04:38;;;;;;;9.73;6.57;;;11.90;99.90;;;;;;4960578;29;20451;-81
2021/10/05 05:07:06;;;;;;;12.63;9.23;;;12.10;99.90;;;;;;4960651;29;20074;-84
2021/10/05 05:09:34;;;;;;;10.88;7.10;;;12.10;99.90;;;;;;4944441;29;20099;-82
2021/10/05 05:12:03;;;;;;;3.05;2.85;;;12.20;99.90;;;;;;4927727;29;20078;-88
2021/10/05 05:14:31;;;;;;;2.70;2.50;;;12.20;99.90;;;;;;4955630;28;20083;-79
2021/10/05 05:16:58;;;;;;;2.80;2.60;;;12.20;99.90;;;;;;4923219;28;20055;-77
2021/10/05 05:19:25;;;;;;;2.70;2.50;;;12.00;99.90;;;;;;4955047;28;20400;-79
2021/10/05 05:21:53;;;;;;;13.50;7.38;;;12.10;99.90;;;;;;4940698;29;20040;-85
2021/10/05 05:24:20;;;;;;;3.70;3.40;;;12.30;99.90;;;;;;4939260;29;20111;-79
2021/10/05 05:26:48;;;;;;;3.50;3.20;;;12.30;99.90;;;;;;4907487;29;20056;-78
2021/10/05 05:29:15;;;;;;;3.00;2.80;;;12.40;99.90;;;;;;4945369;28;20039;-82
2021/10/05 05:31:44;;;;;;;3.00;2.80;;;12.60;99.90;;;;;;4959258;28;20061;-89
2021/10/05 05:34:15;;;;;;;3.28;2.97;;;12.70;99.90;;;;;;4956537;28;20047;-83
2021/10/05 05:36:42;;;;;;;;;;;12.70;99.90;;;;;;4938820;29;20047;-82
2021/10/05 05:39:14;;;;;;;2.90;2.70;;;12.60;99.90;;;;;;4953605;28;19922;-81
2021/10/05 05:45:28;;;;;;;5.20;3.45;;;12.50;99.90;;;;;;4949308;29;20094;-82
2021/10/05 05:47:55;;;;;;;4.00;3.70;;;12.60;99.90;;;;;;4938686;29;20070;-83
2021/10/05 05:50:26;;;;;;;3.00;2.80;;;12.60;99.90;;;;;;4922671;29;20051;-81
2021/10/05 05:52:57;;;;;;;3.45;3.15;;;12.70;99.90;;;;;;4939382;29;20432;-80
2021/10/05 05:55:27;;;;;;;2.60;2.40;;;12.80;99.90;;;;;;4923135;29;20055;-84
2021/10/05 05:58:10;;;;;;;3.38;3.08;;;12.90;99.90;;;;;;4939516;29;20505;-87
2021/10/05 06:00:39;;;;;;;4.07;3.70;;;13.00;99.90;;;;;;4938890;29;20055;-84
2021/10/05 06:03:06;;;;;;;11.15;7.78;;;13.10;99.90;;;;;;4956008;29;20043;-82
2021/10/05 06:05:34;;;;;;;6.68;4.10;;;13.20;99.90;;;;;;4922723;29;20077;-80
2021/10/05 06:08:05;;;;;;;2.88;2.67;;;13.10;99.90;;;;;;4955104;29;20043;-84
2021/10/05 06:10:33;;;;;;;3.50;3.22;;;13.00;99.90;;;;;;4955438;29;20047;-87
2021/10/05 06:13:00;;;;;;;4.07;3.78;;;12.90;99.90;;;;;;4922190;29;20063;-85
2021/10/05 06:15:27;;;;;;;3.25;2.97;;;13.00;99.90;;;;;;4936358;29;20050;-84
2021/10/05 06:17:55;;;;;;;3.45;3.15;;;13.10;99.90;;;;;;4937799;29;20123;-85
2021/10/05 06:20:27;;;;;;;3.13;2.92;;;13.00;99.90;;;;;;4954356;29;20063;-85
2021/10/05 06:22:55;;;;;;;3.78;3.47;;;12.80;99.90;;;;;;4954720;29;20050;-88
2021/10/05 06:25:26;;;;;;;2.92;2.72;;;12.90;99.90;;;;;;4955286;29;20058;-86
2021/10/05 06:27:56;;;;;;;2.97;2.72;;;12.80;99.90;;;;;;4954008;29;20413;-83
2021/10/05 06:30:25;;;;;;;3.28;3.05;;;13.10;99.90;;;;;;4948840;28;20094;-85
2021/10/05 06:32:56;;;;;;;2.83;2.63;;;13.20;99.90;;;;;;4940322;28;20042;-86
2021/10/05 06:35:27;;;;;;;7.70;4.57;;;13.40;99.90;;;;;;4973281;28;20043;-82
2021/10/05 06:37:56;;;;;;;3.75;3.45;;;13.30;99.90;;;;;;4956432;28;20050;-85
2021/10/05 06:40:31;;;;;;;2.60;2.40;;;13.40;99.90;;;;;;4940641;28;20043;-84
2021/10/05 06:42:59;;;;;;;2.60;2.40;;;13.20;99.90;;;;;;4957273;28;20049;-85
2021/10/05 06:45:27;;;;;;;2.92;2.72;;;13.40;99.90;;;;;;4939385;29;20048;-84
2021/10/05 06:47:55;;;;;;;2.53;2.33;;;13.50;99.90;;;;;;4903267;29;20048;-86
2021/10/05 06:50:23;;;;;;;5.45;3.28;;;13.50;99.90;;;;;;4903747;29;20050;-85
2021/10/05 06:52:51;;;;;;;2.60;2.40;;;13.60;99.90;;;;;;4918682;29;20062;-82
2021/10/05 06:55:20;;;;;;;2.50;2.30;;;13.70;99.90;;;;;;4919213;29;20071;-87
2021/10/05 06:57:47;;;;;;;2.40;2.20;;;13.80;99.90;;;;;;4919260;29;20047;-84
2021/10/05 07:00:17;;;;;;;2.60;2.40;;;13.90;99.90;;;;;;4931641;29;20521;-86
2021/10/05 07:02:47;;;;;;;4.15;3.75;;;14.00;99.90;;;;;;4928008;29;20043;-82
2021/10/05 07:05:18;;;;;;;7.80;3.97;;;14.10;99.90;;;;;;4941842;28;20395;-81
2021/10/05 07:07:47;;;;;;;3.20;2.95;;;14.20;99.90;;;;;;4956488;28;20491;-84
2021/10/05 07:10:17;;;;;;;2.45;2.25;;;14.40;99.90;;;;;;4941526;28;20050;-84
2021/10/05 07:12:44;;;;;;;3.88;2.90;;;14.30;99.90;;;;;;4957147;28;20065;-83
2021/10/05 07:15:14;;;;;;;10.75;5.03;;;14.10;99.90;;;;;;4940461;29;20127;-87
2021/10/05 07:17:43;;;;;;;2.65;2.45;;;14.10;99.90;;;;;;4918661;29;20046;-86
2021/10/05 07:20:28;;;;;;;3.80;3.50;;;14.30;99.90;;;;;;4935843;29;20111;-87
2021/10/05 07:22:57;;;;;;;11.27;3.03;;;14.50;99.90;;;;;;4918888;29;20046;-88
2021/10/05 07:25:27;;;;;;;2.70;2.50;;;14.30;99.90;;;;;;4918223;29;20441;-82
2021/10/05 07:27:55;;;;;;;12.85;4.68;;;14.40;99.90;;;;;;4918442;29;20043;-86
2021/10/05 07:30:24;;;;;;;3.33;3.10;;;14.50;99.90;;;;;;4959916;28;20475;-88
2021/10/05 07:32:58;;;;;;;3.05;2.85;;;14.70;99.90;;;;;;4956238;28;20051;-84
2021/10/05 07:35:26;;;;;;;2.58;2.38;;;15.00;99.90;;;;;;4974574;28;20069;-82
2021/10/05 07:37:54;;;;;;;2.90;2.70;;;15.50;99.90;;;;;;4956170;28;20046;-85
2021/10/05 07:40:23;;;;;;;23.20;4.30;;;15.80;99.90;;;;;;4956149;28;20054;-87
2021/10/05 07:42:53;;;;;;;4.47;4.10;;;15.70;99.90;;;;;;4940354;28;20472;-83
2021/10/05 07:45:22;;;;;;;4.97;3.50;;;15.80;99.90;;;;;;4949117;29;20048;-82
2021/10/05 07:47:50;;;;;;;2.65;2.45;;;16.00;99.90;;;;;;4933438;29;20441;-82
2021/10/05 07:50:18;;;;;;;8.73;5.00;;;16.40;99.90;;;;;;4933853;29;20131;-81
2021/10/05 07:52:46;;;;;;;3.03;2.83;;;17.00;99.90;;;;;;4934747;29;20046;-81
2021/10/05 07:55:13;;;;;;;4.40;2.58;;;17.10;99.90;;;;;;4934103;29;20046;-81
2021/10/05 07:57:40;;;;;;;2.38;2.17;;;17.00;99.90;;;;;;4933307;29;20116;-82
2021/10/05 08:00:09;;;;;;;13.40;5.55;;;17.00;99.90;;;;;;4946014;29;20399;-81
2021/10/05 08:02:50;;;;;;;2.55;2.35;;;17.20;99.90;;;;;;4952070;28;20052;-82
2021/10/05 08:05:19;;;;;;;2.15;2.03;;;17.40;99.90;;;;;;4936520;29;20487;-81
2021/10/05 08:07:58;;;;;;;7.03;2.85;;;17.60;99.90;;;;;;4952939;29;20039;-82
2021/10/05 08:10:49;;;;;;;2.63;2.42;;;17.90;99.90;;;;;;4939410;29;20062;-83
2021/10/05 08:13:20;;;;;;;2.72;2.53;;;18.20;99.90;;;;;;4936182;29;20122;-82
2021/10/05 08:15:47;;;;;;;;;;;18.30;99.90;;;;;;4932850;29;20558;-81
2021/10/05 08:18:14;;;;;;;1.65;1.55;;;18.60;99.90;;;;;;4917365;29;20434;-79
2021/10/05 08:20:42;;;;;;;9.18;4.50;;;18.50;99.90;;;;;;4904211;29;20064;-85
2021/10/05 08:23:09;;;;;;;1.83;1.73;;;18.70;99.90;;;;;;4915917;29;20444;-84
2021/10/05 08:25:37;;;;;;;3.72;2.58;;;19.00;99.90;;;;;;4897838;29;20052;-84
2021/10/05 08:28:05;;;;;;;2.88;2.42;;;19.30;99.90;;;;;;4898449;29;20139;-81
2021/10/05 08:30:33;;;;;;;1.83;1.73;;;19.30;99.90;;;;;;4907573;29;20074;-80
2021/10/05 08:33:00;;;;;;;6.22;2.72;;;19.70;99.90;;;;;;4953262;29;20043;-83
2021/10/05 08:35:28;;;;;;;1.73;1.63;;;19.80;99.90;;;;;;4953952;29;20442;-82
2021/10/05 08:38:00;;;;;;;1.80;1.70;;;19.90;99.90;;;;;;4935977;29;20051;-84
2021/10/05 08:40:27;;;;;;;1.67;1.58;;;20.40;99.90;;;;;;4953319;29;20043;-87
2021/10/05 08:42:55;;;;;;;2.05;1.65;;;20.70;99.90;;;;;;4954031;29;20456;-86
2021/10/05 08:45:24;;;;;;;1.00;1.00;;;20.30;99.90;;;;;;4921558;29;20099;-83
2021/10/05 08:47:51;;;;;;;8.65;2.50;;;20.50;99.90;;;;;;4916690;29;20152;-88
2021/10/05 08:50:20;;;;;;;3.55;2.45;;;20.60;99.90;;;;;;4917332;29;20044;-80
2021/10/05 08:52:48;;;;;;;1.55;1.45;;;20.60;99.90;;;;;;4901202;29;20126;-85
2021/10/05 08:55:15;;;;;;;3.25;2.22;;;20.80;99.90;;;;;;4933764;29;20080;-86
2021/10/05 08:57:42;;;;;;;1.42;1.33;;;20.70;99.90;;;;;;4916962;29;20039;-84
2021/10/05 09:00:10;;;;;;;1.33;1.23;;;21.10;99.80;;;;;;4934519;29;20044;-89
2021/10/05 09:02:55;;;;;;;1.63;1.52;;;21.10;99.90;;;;;;4917167;29;20081;-87
2021/10/05 09:05:26;;;;;;;1.27;1.17;;;20.70;99.90;;;;;;4918799;29;20044;-82
2021/10/05 09:07:56;;;;;;;1.42;1.33;;;21.10;99.90;;;;;;4934032;29;20039;-80
2021/10/05 09:10:30;;;;;;;1.48;1.38;;;21.40;99.90;;;;;;4936785;29;20044;-80
2021/10/05 09:12:58;;;;;;;1.20;1.10;;;21.70;99.50;;;;;;4920683;29;20107;-82
2021/10/05 09:15:25;;;;;;;1.52;1.42;;;21.80;99.00;;;;;;4937370;29;20103;-83
2021/10/05 09:17:57;;;;;;;1.48;1.38;;;21.80;99.20;;;;;;4920880;29;20066;-82
2021/10/05 09:20:33;;;;;;;1.48;1.38;;;21.50;99.40;;;;;;4920682;29;20076;-92
2021/10/05 09:23:13;;;;;;;1.55;1.45;;;21.70;98.80;;;;;;4906917;29;20044;-91
2021/10/05 09:25:43;;;;;;;1.30;1.23;;;21.50;99.40;;;;;;4906490;29;20047;-88
2021/10/05 09:28:24;;;;;;;0.98;0.98;;;21.50;99.70;;;;;;4922613;29;20054;-90
2021/10/05 09:30:56;;;;;;;0.90;0.90;;;21.00;99.20;;;;;;4922865;29;20048;-87
2021/10/05 09:33:24;;;;;;;1.48;1.38;;;21.10;99.90;;;;;;4922925;29;20411;-83
2021/10/05 09:35:51;;;;;;;4.80;1.92;;;21.70;99.20;;;;;;4921518;29;20049;-83
2021/10/05 09:38:21;;;;;;;0.95;0.95;;;22.00;98.40;;;;;;4921244;29;20090;-85
2021/10/05 09:41:09;;;;;;;3.05;2.00;;;21.90;97.70;;;;;;4938705;29;20043;-89
2021/10/05 09:43:36;;;;;;;1.73;1.25;;;21.70;98.60;;;;;;4938342;29;20040;-79
2021/10/05 09:46:11;;;;;;;1.15;1.08;;;21.90;98.00;;;;;;4938298;29;20126;-87
2021/10/05 09:48:40;;;;;;;1.45;1.35;;;22.10;98.00;;;;;;4937957;29;20040;-83
2021/10/05 09:51:24;;;;;;;1.55;1.30;;;21.70;97.80;;;;;;4937651;29;20051;-82
2021/10/05 09:53:52;;;;;;;0.88;0.85;;;21.50;98.30;;;;;;4937524;29;20467;-79
2021/10/05 09:56:23;;;;;;;1.33;1.25;;;21.30;98.20;;;;;;4937716;29;20142;-81
2021/10/05 09:58:51;;;;;;;1.02;1.00;;;21.90;98.50;;;;;;4936771;29;20377;-86
2021/10/05 10:01:20;;;;;;;0.93;0.93;;;22.00;97.40;;;;;;4936528;29;20078;-77
2021/10/05 10:03:50;;;;;;;1.30;1.13;;;22.50;97.40;;;;;;4936678;29;20455;-81
2021/10/05 10:06:18;;;;;;;2.33;2.13;;;22.60;97.10;;;;;;4936397;29;20282;-81
2021/10/05 10:08:47;;;;;;;1.50;1.40;;;22.60;96.80;;;;;;4936460;29;20067;-79
2021/10/05 10:11:15;;;;;;;1.75;1.65;;;22.70;96.40;;;;;;4936338;29;20091;-81
2021/10/05 10:13:47;;;;;;;1.08;0.98;;;23.00;96.50;;;;;;4936869;29;20057;-80
2021/10/05 10:16:15;;;;;;;1.17;1.08;;;23.30;96.10;;;;;;4919316;29;20083;-81
2021/10/05 10:18:59;;;;;;;0.60;0.60;;;23.50;95.80;;;;;;4936277;29;20047;-80
2021/10/05 10:21:39;;;;;;;2.92;2.00;;;23.30;94.70;;;;;;4954626;28;20057;-84
2021/10/05 10:24:13;;;;;;;;;;;23.00;94.40;;;;;;4955978;29;20126;-79
2021/10/05 10:26:47;;;;;;;0.80;0.80;;;23.10;94.50;;;;;;4922625;29;19985;-82
2021/10/05 10:29:35;;;;;;;0.80;0.80;;;23.00;94.00;;;;;;4938507;29;20046;-80
2021/10/05 10:32:18;;;;;;;4.20;1.05;;;23.20;94.20;;;;;;4957588;28;20043;-82
2021/10/05 10:35:03;;;;;;;0.70;0.70;;;23.30;94.10;;;;;;4957133;28;20062;-81
2021/10/05 10:37:45;;;;;;;0.57;0.57;;;23.30;93.20;;;;;;4957152;28;20047;-79
2021/10/05 10:40:14;;;;;;;1.10;1.08;;;23.20;93.70;;;;;;4957197;28;20070;-83
2021/10/05 10:42:42;;;;;;;2.13;1.45;;;23.10;92.70;;;;;;4974382;28;20097;-82
2021/10/05 10:45:18;;;;;;;0.90;0.90;;;23.10;93.10;;;;;;4956573;28;20051;-83
2021/10/05 10:47:52;;;;;;;1.08;0.95;;;23.50;92.00;;;;;;4956787;28;20039;-84
2021/10/05 10:50:20;;;;;;;1.27;1.17;;;23.70;92.50;;;;;;4957053;28;20046;-84
2021/10/05 10:52:48;;;;;;;1.15;1.08;;;24.00;92.10;;;;;;4958442;28;20059;-83
2021/10/05 10:55:19;;;;;;;2.10;1.67;;;24.00;90.90;;;;;;4941546;28;20058;-83
2021/10/05 10:57:55;;;;;;;1.75;1.15;;;23.90;90.50;;;;;;4956647;28;20141;-84
2021/10/05 11:08:34;;;;;;;1.17;1.13;;;24.80;88.00;;;;;;4973502;28;20037;-84
2021/10/05 11:11:03;;;;;;;1.00;0.90;;;25.40;86.90;;;;;;4955885;28;20062;-83
2021/10/05 11:13:30;;;;;;;3.13;1.30;;;25.50;85.40;;;;;;4956451;28;20051;-88
2021/10/05 11:16:03;;;;;;;0.77;0.77;;;25.60;83.80;;;;;;4972563;28;20051;-84
2021/10/05 11:18:31;;;;;;;0.73;0.60;;;25.90;83.30;;;;;;4956423;28;20046;-87
2021/10/05 11:20:59;;;;;;;1.38;1.27;;;25.80;81.80;;;;;;4972481;28;20069;-82
2021/10/05 11:23:28;;;;;;;0.93;0.93;;;25.80;81.50;;;;;;4955398;28;20042;-86
2021/10/05 11:25:58;;;;;;;0.55;0.55;;;26.10;80.90;;;;;;4956075;28;20456;-88
2021/10/05 11:28:31;;;;;;;0.47;0.47;;;26.30;79.90;;;;;;4940584;28;20039;-87
2021/10/05 11:31:04;;;;;;;3.35;1.38;;;26.40;78.70;;;;;;4973521;28;20049;-85
2021/10/05 11:33:37;;;;;;;0.68;0.68;;;26.10;77.50;;;;;;4973996;28;20117;-89
2021/10/05 11:36:17;;;;;;;1.23;1.17;;;26.00;77.70;;;;;;4940748;28;20407;-81
2021/10/05 11:38:49;;;;;;;0.97;0.87;;;26.30;77.50;;;;;;4974102;28;20446;-83
2021/10/05 11:41:18;;;;;;;0.40;0.40;;;26.50;75.90;;;;;;4956973;28;20069;-83
2021/10/05 11:43:50;;;;;;;2.08;1.38;;;26.80;75.40;;;;;;4974236;28;20062;-83
2021/10/05 11:46:23;;;;;;;0.82;0.82;;;26.80;73.70;;;;;;4973914;28;20039;-86
2021/10/05 11:48:55;;;;;;;1.65;1.52;;;26.60;73.00;;;;;;4972345;28;20054;-84
2021/10/05 11:51:25;;;;;;;0.52;0.52;;;26.90;72.00;;;;;;4955667;29;20051;-82
2021/10/05 11:53:52;;;;;;;0.43;0.43;;;27.00;71.40;;;;;;4955036;29;20134;-81
2021/10/05 11:56:21;;;;;;;0.60;0.60;;;27.10;70.90;;;;;;4936892;29;20057;-82
2021/10/05 11:58:58;;;;;;;0.63;0.60;;;27.20;71.90;;;;;;4953903;29;20035;-82
2021/10/05 12:01:28;;;;;;;0.63;0.63;;;27.00;72.00;;;;;;4934713;29;20380;-79
2021/10/05 12:04:07;;;;;;;1.85;1.75;;;26.90;72.80;;;;;;4943993;29;20040;-81
2021/10/05 12:06:38;;;;;;;3.22;0.90;;;27.10;72.20;;;;;;4932922;29;20039;-81
2021/10/05 12:09:07;;;;;;;0.50;0.50;;;27.30;71.50;;;;;;4920669;29;20154;-80
2021/10/05 12:11:37;;;;;;;0.63;0.63;;;27.10;69.80;;;;;;4933021;29;20094;-82
2021/10/05 12:14:05;;;;;;;0.77;0.75;;;26.40;70.60;;;;;;4922889;29;20122;-81
2021/10/05 12:16:32;;;;;;;0.82;0.82;;;26.70;69.90;;;;;;4937804;29;20047;-84
2021/10/05 12:19:02;;;;;;;1.02;0.77;;;27.10;69.10;;;;;;4928207;29;20047;-80
2021/10/05 12:21:29;;;;;;;0.75;0.75;;;26.70;69.30;;;;;;4940099;29;20062;-80
2021/10/05 12:24:00;;;;;;;0.57;0.57;;;26.80;69.20;;;;;;4945071;29;20438;-85
2021/10/05 12:26:27;;;;;;;1.38;1.20;;;27.10;68.10;;;;;;4943345;29;20043;-78
2021/10/05 12:29:10;;;;;;;0.68;0.68;;;27.40;67.70;;;;;;4942046;28;20054;-82
2021/10/05 12:31:38;;;;;;;0.98;0.85;;;27.40;66.60;;;;;;4942121;29;20082;-80
2021/10/05 12:34:07;;;;;;;0.68;0.63;;;28.10;64.70;;;;;;4941186;29;20040;-77
2021/10/05 12:36:37;;;;;;;0.85;0.85;;;30.10;65.00;;;;;;4941264;29;20404;-77
2021/10/05 12:39:13;;;;;;;0.50;0.50;;;33.90;59.60;;;;;;4939631;29;20036;-81
2021/10/05 12:41:41;;;;;;;1.15;1.05;;;35.00;53.60;;;;;;4923551;29;20051;-80
2021/10/05 12:44:19;;;;;;;0.63;0.63;;;35.80;52.50;;;;;;4941807;29;20404;-80
2021/10/05 12:46:57;;;;;;;0.93;0.80;;;31.70;54.00;;;;;;4939732;29;20054;-78
2021/10/05 12:49:26;;;;;;;0.93;0.82;;;30.20;57.90;;;;;;4939979;29;20044;-82
2021/10/05 12:51:54;;;;;;;0.38;0.30;;;29.60;59.80;;;;;;4956302;29;20057;-81
2021/10/05 12:54:21;;;;;;;0.50;0.40;;;28.90;61.30;;;;;;4956958;29;20035;-85
2021/10/05 12:56:49;;;;;;;0.73;0.70;;;29.00;62.00;;;;;;4939354;29;20081;-85
2021/10/05 12:59:18;;;;;;;0.57;0.57;;;29.50;61.20;;;;;;4957104;29;20570;-86
2021/10/05 13:01:46;;;;;;;0.93;0.87;;;29.50;60.90;;;;;;4939582;29;20075;-85
2021/10/05 13:04:15;;;;;;;0.40;0.40;;;29.80;60.70;;;;;;4957081;29;20459;-80
2021/10/05 13:06:43;;;;;;;3.17;1.33;;;30.20;60.00;;;;;;4956655;29;20039;-86
2021/10/05 13:09:11;;;;;;;1.40;0.98;;;30.40;60.00;;;;;;4957296;29;20086;-86
2021/10/05 13:11:40;;;;;;;1.02;0.98;;;31.10;59.70;;;;;;4956847;29;20727;-80
2021/10/05 13:14:14;;;;;;;0.60;0.60;;;30.90;59.50;;;;;;4957037;29;20047;-82
2021/10/05 13:16:45;;;;;;;0.98;0.77;;;29.60;60.20;;;;;;4956326;29;20205;-79
2021/10/05 13:19:13;;;;;;;0.73;0.73;;;28.40;62.40;;;;;;4956142;28;20043;-79
2021/10/05 13:21:40;;;;;;;0.30;0.30;;;28.40;62.10;;;;;;4955508;29;20082;-81